Time,TemperatureF,DewpointF,PressureIn,WindDirection,WindDirectionDegrees,WindSpeedMPH,WindSpeedGustMPH,Humidity,HourlyPrecipIn,Conditions,Clouds,dailyrainin,SoftwareType,DateUTC
2013-03-19 00:03:00,50.5,39.6,30.06,NNW,338,0.0,0.0,66,0.00,,---,0.00,VWS V14.01,2013-03-19 07:03:00,
2013-03-19 00:08:00,50.4,39.5,30.06,NNE,22,1.6,1.6,66,0.00,,---,0.00,VWS V14.01,2013-03-19 07:08:00,
2013-03-19 00:13:00,50.4,39.5,30.06,ESE,112,2.7,2.7,66,0.00,,---,0.00,VWS V14.01,2013-03-19 07:13:00,
2013-03-19 00:18:00,50.4,39.5,30.06,ESE,112,1.6,1.6,66,0.00,,---,0.00,VWS V14.01,2013-03-19 07:18:00,
2013-03-19 00:23:00,50.4,39.5,30.06,ENE,68,1.1,1.1,66,0.00,,---,0.00,VWS V14.01,2013-03-19 07:23:00,
2013-03-19 00:28:00,50.2,38.9,30.06,ENE,68,0.0,0.0,65,0.00,,---,0.00,VWS V14.01,2013-03-19 07:28:00,
2013-03-19 00:33:00,50.4,39.1,30.06,South,180,0.9,0.9,65,0.00,,---,0.00,VWS V14.01,2013-03-19 07:33:00,
2013-03-19 00:38:00,50.5,39.2,30.06,ESE,112,2.0,2.0,65,0.00,,---,0.00,VWS V14.01,2013-03-19 07:38:00,
2013-03-19 00:43:00,50.5,39.2,30.06,East,90,0.0,1.6,65,0.00,,---,0.00,VWS V14.01,2013-03-19 07:43:00,
2013-03-19 00:48:00,50.7,39.4,30.06,SE,135,0.0,0.0,65,0.00,,---,0.00,VWS V14.01,2013-03-19 07:48:00,
2013-03-19 00:53:00,50.7,39.4,30.06,SE,135,1.1,1.1,65,0.00,,---,0.00,VWS V14.01,2013-03-19 07:53:00,
2013-03-19 00:58:00,50.7,39.0,30.06,ESE,112,1.1,1.3,64,0.00,,---,0.00,VWS V14.01,2013-03-19 07:58:00,
2013-03-19 01:03:00,50.5,38.8,30.06,SE,135,0.0,0.0,64,0.00,,---,0.00,VWS V14.01,2013-03-19 08:03:00,
2013-03-19 01:08:00,50.5,38.8,30.06,SE,135,0.0,0.0,64,0.00,,---,0.00,VWS V14.01,2013-03-19 08:08:00,
2013-03-19 01:13:00,50.5,38.8,30.06,SSE,158,0.0,0.0,64,0.00,,---,0.00,VWS V14.01,2013-03-19 08:13:00,
2013-03-19 01:18:00,50.5,38.8,30.03,ENE,68,0.0,0.0,64,0.00,,---,0.00,VWS V14.01,2013-03-19 08:18:00,
2013-03-19 01:23:00,50.5,38.8,30.03,ESE,112,0.0,1.1,64,0.00,,---,0.00,VWS V14.01,2013-03-19 08:23:00,
2013-03-19 01:28:00,50.5,38.8,30.03,SE,135,0.0,0.0,64,0.00,,---,0.00,VWS V14.01,2013-03-19 08:28:00,
2013-03-19 01:34:00,50.5,38.8,30.03,ESE,112,2.0,2.0,64,0.00,,---,0.00,VWS V14.01,2013-03-19 08:34:00,
2013-03-19 01:39:00,50.5,38.8,30.03,SE,135,1.6,1.6,64,0.00,,---,0.00,VWS V14.01,2013-03-19 08:39:00,
2013-03-19 01:44:00,50.5,38.8,30.03,SE,135,0.0,1.1,64,0.00,,---,0.00,VWS V14.01,2013-03-19 08:44:00,
2013-03-19 01:49:00,50.9,38.8,30.06,SE,135,1.6,1.6,63,0.00,,---,0.00,VWS V14.01,2013-03-19 08:49:00,
2013-03-19 01:54:00,50.9,38.8,30.06,SE,135,0.0,2.0,63,0.00,,---,0.00,VWS V14.01,2013-03-19 08:54:00,
2013-03-19 01:59:00,50.9,38.8,30.06,ESE,112,0.9,1.3,63,0.00,,---,0.00,VWS V14.01,2013-03-19 08:59:00,
2013-03-19 02:04:00,50.7,38.6,30.03,ESE,112,1.3,1.6,63,0.00,,---,0.00,VWS V14.01,2013-03-19 09:04:00,
2013-03-19 02:09:00,50.5,38.4,30.03,East,90,1.6,1.6,63,0.00,,---,0.00,VWS V14.01,2013-03-19 09:09:00,
2013-03-19 02:14:00,50.5,38.4,30.03,ESE,112,1.3,1.3,63,0.00,,---,0.00,VWS V14.01,2013-03-19 09:14:00,
2013-03-19 02:19:00,50.5,38.4,30.06,ESE,112,1.6,2.0,63,0.00,,---,0.00,VWS V14.01,2013-03-19 09:19:00,
2013-03-19 02:24:00,50.5,38.4,30.06,SE,135,0.9,2.0,63,0.00,,---,0.00,VWS V14.01,2013-03-19 09:24:00,
2013-03-19 02:29:00,50.4,38.3,30.06,East,90,1.6,1.6,63,0.00,,---,0.00,VWS V14.01,2013-03-19 09:29:00,
2013-03-19 02:34:00,50.4,38.3,30.06,SE,135,1.1,2.2,63,0.00,,---,0.00,VWS V14.01,2013-03-19 09:34:00,
2013-03-19 02:39:00,50.4,38.3,30.06,ESE,112,1.3,1.3,63,0.00,,---,0.00,VWS V14.01,2013-03-19 09:39:00,
2013-03-19 02:44:00,50.2,38.1,30.06,ESE,112,0.0,2.2,63,0.00,,---,0.00,VWS V14.01,2013-03-19 09:44:00,
2013-03-19 02:49:00,50.0,37.5,30.03,NNE,22,0.0,0.0,62,0.00,,---,0.00,VWS V14.01,2013-03-19 09:49:00,
2013-03-19 02:54:00,50.0,37.5,30.03,SSW,202,0.0,1.6,62,0.00,,---,0.00,VWS V14.01,2013-03-19 09:54:00,
2013-03-19 02:59:00,49.8,37.8,30.03,SE,135,0.0,0.0,63,0.00,,---,0.00,VWS V14.01,2013-03-19 09:59:00,
2013-03-19 03:05:00,49.6,37.6,30.03,ENE,68,0.0,1.1,63,0.00,,---,0.00,VWS V14.01,2013-03-19 10:05:00,
2013-03-19 03:10:00,49.5,37.4,30.03,East,90,0.0,0.0,63,0.00,,---,0.00,VWS V14.01,2013-03-19 10:10:00,
2013-03-19 03:15:00,49.3,37.2,30.03,South,180,0.0,0.0,63,0.00,,---,0.00,VWS V14.01,2013-03-19 10:15:00,
2013-03-19 03:20:00,49.1,37.1,30.03,South,180,0.0,0.0,63,0.00,,---,0.00,VWS V14.01,2013-03-19 10:20:00,
2013-03-19 03:25:00,48.9,36.9,30.03,ENE,68,0.9,2.0,63,0.00,,---,0.00,VWS V14.01,2013-03-19 10:25:00,
2013-03-19 03:30:00,48.7,36.7,30.03,NE,45,0.0,0.0,63,0.00,,---,0.00,VWS V14.01,2013-03-19 10:30:00,
2013-03-19 03:35:00,48.6,36.5,30.03,South,180,0.0,1.6,63,0.00,,---,0.00,VWS V14.01,2013-03-19 10:35:00,
2013-03-19 03:40:00,48.6,36.5,30.03,South,180,1.3,1.3,63,0.00,,---,0.00,VWS V14.01,2013-03-19 10:40:00,
2013-03-19 03:45:00,48.4,36.8,30.03,South,180,0.0,1.1,64,0.00,,---,0.00,VWS V14.01,2013-03-19 10:45:00,
2013-03-19 03:50:00,48.2,36.6,30.03,East,90,1.3,1.3,64,0.00,,---,0.00,VWS V14.01,2013-03-19 10:50:00,
2013-03-19 03:55:00,48.2,36.6,30.03,ENE,68,1.1,1.1,64,0.00,,---,0.00,VWS V14.01,2013-03-19 10:55:00,
2013-03-19 04:00:00,48.2,36.6,30.03,NE,45,0.0,1.1,64,0.00,,---,0.00,VWS V14.01,2013-03-19 11:00:00,
2013-03-19 04:06:00,47.8,36.3,30.03,NE,45,0.0,0.0,64,0.00,,---,0.00,VWS V14.01,2013-03-19 11:06:00,
2013-03-19 04:11:00,47.8,36.3,30.03,NE,45,0.0,0.0,64,0.00,,---,0.00,VWS V14.01,2013-03-19 11:11:00,
2013-03-19 04:16:00,47.8,36.3,30.03,South,180,0.0,0.0,64,0.00,,---,0.00,VWS V14.01,2013-03-19 11:16:00,
2013-03-19 04:22:00,47.5,35.9,30.03,South,180,0.0,0.0,64,0.00,,---,0.00,VWS V14.01,2013-03-19 11:22:00,
2013-03-19 04:27:00,47.3,35.8,30.03,North,0,0.0,0.0,64,0.00,,---,0.00,VWS V14.01,2013-03-19 11:27:00,
2013-03-19 04:32:00,47.3,35.8,30.03,NNE,22,0.0,0.0,64,0.00,,---,0.00,VWS V14.01,2013-03-19 11:32:00,
2013-03-19 04:37:00,47.3,36.2,30.03,NNE,22,0.0,0.0,65,0.00,,---,0.00,VWS V14.01,2013-03-19 11:37:00,
2013-03-19 04:42:00,47.1,36.0,30.03,NE,45,0.0,1.1,65,0.00,,---,0.00,VWS V14.01,2013-03-19 11:42:00,
2013-03-19 04:47:00,47.1,36.0,30.03,NE,45,1.6,1.6,65,0.00,,---,0.00,VWS V14.01,2013-03-19 11:47:00,
2013-03-19 04:52:00,46.9,35.8,30.03,ENE,68,0.0,0.0,65,0.00,,---,0.00,VWS V14.01,2013-03-19 11:52:00,
2013-03-19 04:57:00,46.8,35.6,30.03,South,180,2.5,2.5,65,0.00,,---,0.00,VWS V14.01,2013-03-19 11:57:00,
2013-03-19 05:02:00,46.8,35.6,30.03,South,180,1.3,1.3,65,0.00,,---,0.00,VWS V14.01,2013-03-19 12:02:00,
2013-03-19 05:08:00,46.8,36.0,30.03,South,180,1.3,1.3,66,0.00,,---,0.00,VWS V14.01,2013-03-19 12:08:00,
2013-03-19 05:13:00,46.6,35.8,30.03,ESE,112,0.9,0.9,66,0.00,,---,0.00,VWS V14.01,2013-03-19 12:13:00,
2013-03-19 05:18:00,46.6,35.8,30.03,ENE,68,1.3,1.3,66,0.00,,---,0.00,VWS V14.01,2013-03-19 12:18:00,
2013-03-19 05:23:00,46.4,35.3,30.03,ENE,68,1.1,1.1,65,0.00,,---,0.00,VWS V14.01,2013-03-19 12:23:00,
2013-03-19 05:28:00,46.4,35.7,30.03,ENE,68,1.1,1.1,66,0.00,,---,0.00,VWS V14.01,2013-03-19 12:28:00,
2013-03-19 05:33:00,46.2,35.5,30.03,South,180,0.0,0.0,66,0.00,,---,0.00,VWS V14.01,2013-03-19 12:33:00,
2013-03-19 05:38:00,46.2,35.5,30.03,South,180,0.0,0.0,66,0.00,,---,0.00,VWS V14.01,2013-03-19 12:38:00,
2013-03-19 05:43:00,46.0,35.3,30.03,South,180,0.0,0.0,66,0.00,,---,0.00,VWS V14.01,2013-03-19 12:43:00,
2013-03-19 05:48:00,46.0,35.3,30.03,SE,135,0.0,0.0,66,0.00,,---,0.00,VWS V14.01,2013-03-19 12:48:00,
2013-03-19 05:53:00,45.9,35.2,30.06,SE,135,0.0,0.0,66,0.00,,---,0.00,VWS V14.01,2013-03-19 12:53:00,
2013-03-19 05:58:00,45.9,35.5,30.06,SE,135,0.0,0.0,67,0.00,,---,0.00,VWS V14.01,2013-03-19 12:58:00,
2013-03-19 06:03:00,45.9,35.5,30.06,SE,135,0.0,0.0,67,0.00,,---,0.00,VWS V14.01,2013-03-19 13:03:00,
2013-03-19 06:08:00,45.7,35.0,30.06,SE,135,0.0,0.0,66,0.00,,---,0.00,VWS V14.01,2013-03-19 13:08:00,
2013-03-19 06:13:00,45.5,34.8,30.06,SE,135,0.0,0.0,66,0.00,,---,0.00,VWS V14.01,2013-03-19 13:13:00,
2013-03-19 06:18:00,45.5,34.8,30.06,SE,135,0.0,0.0,66,0.00,,---,0.00,VWS V14.01,2013-03-19 13:18:00,
2013-03-19 06:24:00,45.5,34.8,30.06,SE,135,0.0,0.0,66,0.00,,---,0.00,VWS V14.01,2013-03-19 13:24:00,
2013-03-19 06:29:00,45.3,35.0,30.06,SE,135,0.0,0.0,67,0.00,,---,0.00,VWS V14.01,2013-03-19 13:29:00,
2013-03-19 06:34:00,45.3,35.0,30.06,SE,135,0.0,0.0,67,0.00,,---,0.00,VWS V14.01,2013-03-19 13:34:00,
2013-03-19 06:39:00,45.1,34.8,30.06,SE,135,0.0,0.0,67,0.00,,---,0.00,VWS V14.01,2013-03-19 13:39:00,
2013-03-19 06:44:00,45.1,34.8,30.06,SE,135,0.0,0.0,67,0.00,,---,0.00,VWS V14.01,2013-03-19 13:44:00,
2013-03-19 06:50:00,45.0,34.7,30.06,SE,135,0.0,0.0,67,0.00,,---,0.00,VWS V14.01,2013-03-19 13:50:00,
2013-03-19 06:55:00,45.0,34.7,30.06,SE,135,0.0,0.0,67,0.00,,---,0.00,VWS V14.01,2013-03-19 13:55:00,
2013-03-19 07:00:00,44.8,34.5,30.06,SE,135,0.0,0.0,67,0.00,,---,0.00,VWS V14.01,2013-03-19 14:00:00,
2013-03-19 07:05:00,44.8,34.5,30.06,SE,135,0.0,0.0,67,0.00,,---,0.00,VWS V14.01,2013-03-19 14:05:00,
2013-03-19 07:10:00,44.8,34.5,30.06,SE,135,0.0,0.0,67,0.00,,---,0.00,VWS V14.01,2013-03-19 14:10:00,
2013-03-19 07:15:00,44.8,34.5,30.06,SE,135,0.0,0.0,67,0.00,,---,0.00,VWS V14.01,2013-03-19 14:15:00,
2013-03-19 07:20:00,44.8,34.5,30.06,South,180,1.6,1.6,67,0.00,,---,0.00,VWS V14.01,2013-03-19 14:20:00,
2013-03-19 07:25:00,44.6,34.3,30.06,South,180,1.6,1.6,67,0.00,,---,0.00,VWS V14.01,2013-03-19 14:25:00,
2013-03-19 07:30:00,44.6,34.3,30.06,ESE,112,0.0,1.1,67,0.00,,---,0.00,VWS V14.01,2013-03-19 14:30:00,
2013-03-19 07:35:00,44.6,34.3,30.06,ESE,112,2.0,2.0,67,0.00,,---,0.00,VWS V14.01,2013-03-19 14:35:00,
2013-03-19 07:40:00,44.6,34.3,30.06,South,180,0.0,0.0,67,0.00,,---,0.00,VWS V14.01,2013-03-19 14:40:00,
2013-03-19 07:45:00,45.1,35.2,30.06,NNE,22,0.0,1.6,68,0.00,,---,0.00,VWS V14.01,2013-03-19 14:45:00,
2013-03-19 07:50:00,45.1,35.2,30.06,NNW,338,1.1,2.0,68,0.00,,---,0.00,VWS V14.01,2013-03-19 14:50:00,
2013-03-19 07:55:00,45.1,35.2,30.06,West,270,0.0,2.0,68,0.00,,---,0.00,VWS V14.01,2013-03-19 14:55:00,
2013-03-19 08:00:00,45.1,35.2,30.06,NE,45,2.0,2.0,68,0.00,,---,0.00,VWS V14.01,2013-03-19 15:00:00,
2013-03-19 08:06:00,45.1,35.2,30.06,NNW,338,0.9,2.2,68,0.00,,---,0.00,VWS V14.01,2013-03-19 15:06:00,
2013-03-19 08:11:00,45.1,35.2,30.06,WNW,292,2.5,2.5,68,0.00,,---,0.00,VWS V14.01,2013-03-19 15:11:00,
2013-03-19 08:16:00,45.1,35.2,30.06,SSW,202,0.0,2.9,68,0.00,,---,0.00,VWS V14.01,2013-03-19 15:16:00,
2013-03-19 08:21:00,45.1,35.2,30.06,South,180,0.0,0.0,68,0.00,,---,0.00,VWS V14.01,2013-03-19 15:21:00,
2013-03-19 08:27:00,45.1,35.2,30.06,South,180,0.0,1.6,68,0.00,,---,0.00,VWS V14.01,2013-03-19 15:27:00,
2013-03-19 08:32:00,45.1,35.2,30.06,NNW,338,1.3,1.3,68,0.00,,---,0.00,VWS V14.01,2013-03-19 15:32:00,
2013-03-19 08:37:00,45.1,35.2,30.09,North,0,1.1,1.1,68,0.00,,---,0.00,VWS V14.01,2013-03-19 15:37:00,
2013-03-19 08:42:00,45.1,35.2,30.09,NNE,22,1.1,1.3,68,0.00,,---,0.00,VWS V14.01,2013-03-19 15:42:00,
2013-03-19 08:47:00,45.1,35.2,30.09,NNW,338,1.3,2.5,68,0.00,,---,0.00,VWS V14.01,2013-03-19 15:47:00,
2013-03-19 08:52:00,45.1,35.2,30.09,NNE,22,2.7,2.7,68,0.00,,---,0.00,VWS V14.01,2013-03-19 15:52:00,
2013-03-19 08:57:00,45.1,35.2,30.09,NW,315,1.3,2.5,68,0.00,,---,0.00,VWS V14.01,2013-03-19 15:57:00,
2013-03-19 09:02:00,45.1,35.2,30.09,West,270,1.1,1.1,68,0.00,,---,0.00,VWS V14.01,2013-03-19 16:02:00,
2013-03-19 09:08:00,49.3,38.8,30.09,West,270,0.9,0.9,67,0.00,,---,0.00,VWS V14.01,2013-03-19 16:08:00,
2013-03-19 09:13:00,49.3,38.8,30.09,West,270,0.0,0.0,67,0.00,,---,0.00,VWS V14.01,2013-03-19 16:13:00,
2013-03-19 09:18:00,49.3,38.8,30.09,SSE,158,0.0,0.0,67,0.00,,---,0.00,VWS V14.01,2013-03-19 16:18:00,
2013-03-19 09:23:00,49.3,38.8,30.09,NW,315,2.0,2.9,67,0.00,,---,0.00,VWS V14.01,2013-03-19 16:23:00,
2013-03-19 09:28:00,49.3,38.8,30.09,West,270,2.5,2.5,67,0.00,,---,0.00,VWS V14.01,2013-03-19 16:28:00,
2013-03-19 09:33:00,49.3,38.8,30.09,WNW,292,0.0,3.4,67,0.00,,---,0.00,VWS V14.01,2013-03-19 16:33:00,
2013-03-19 09:38:00,51.4,40.5,30.09,NNW,338,1.1,1.1,66,0.00,,---,0.00,VWS V14.01,2013-03-19 16:38:00,
2013-03-19 09:43:00,51.4,40.5,30.09,WNW,292,2.5,2.5,66,0.00,,---,0.00,VWS V14.01,2013-03-19 16:43:00,
2013-03-19 09:48:00,51.4,40.5,30.09,WNW,292,2.7,2.7,66,0.00,,---,0.00,VWS V14.01,2013-03-19 16:48:00,
2013-03-19 09:53:00,51.4,40.5,30.09,NNW,338,2.5,2.5,66,0.00,,---,0.00,VWS V14.01,2013-03-19 16:53:00,
2013-03-19 09:58:00,51.4,40.5,30.09,NW,315,2.2,3.6,66,0.00,,---,0.00,VWS V14.01,2013-03-19 16:58:00,
2013-03-19 10:03:00,53.6,41.7,30.09,WNW,292,1.6,1.6,64,0.00,,---,0.00,VWS V14.01,2013-03-19 17:03:00,
2013-03-19 10:08:00,53.6,41.7,30.09,North,0,0.0,1.6,64,0.00,,---,0.00,VWS V14.01,2013-03-19 17:08:00,
2013-03-19 10:13:00,54.7,42.8,30.09,NW,315,1.3,1.3,64,0.00,,---,0.00,VWS V14.01,2013-03-19 17:13:00,
2013-03-19 10:18:00,54.9,42.9,30.09,NNW,338,0.0,1.6,64,0.00,,---,0.00,VWS V14.01,2013-03-19 17:18:00,
2013-03-19 10:23:00,54.9,42.9,30.09,West,270,0.0,0.0,64,0.00,,---,0.00,VWS V14.01,2013-03-19 17:23:00,
2013-03-19 10:28:00,54.9,42.9,30.09,North,0,1.3,1.3,64,0.00,,---,0.00,VWS V14.01,2013-03-19 17:28:00,
2013-03-19 10:34:00,54.9,42.9,30.09,NW,315,2.5,2.5,64,0.00,,---,0.00,VWS V14.01,2013-03-19 17:34:00,
2013-03-19 10:39:00,54.9,42.9,30.09,WNW,292,2.7,2.7,64,0.00,,---,0.00,VWS V14.01,2013-03-19 17:39:00,
2013-03-19 10:44:00,54.9,42.9,30.09,West,270,0.0,2.2,64,0.00,,---,0.00,VWS V14.01,2013-03-19 17:44:00,
2013-03-19 10:50:00,54.9,42.9,30.09,North,0,1.1,1.1,64,0.00,,---,0.00,VWS V14.01,2013-03-19 17:50:00,
2013-03-19 10:55:00,54.9,42.9,30.09,NNW,338,0.0,1.6,64,0.00,,---,0.00,VWS V14.01,2013-03-19 17:55:00,
2013-03-19 11:00:00,54.9,42.9,30.09,NW,315,2.0,2.0,64,0.00,,---,0.00,VWS V14.01,2013-03-19 18:00:00,
2013-03-19 11:05:00,54.9,42.9,30.09,West,270,1.6,2.5,64,0.00,,---,0.00,VWS V14.01,2013-03-19 18:05:00,
2013-03-19 11:10:00,54.9,42.9,30.09,NNW,338,1.6,2.7,64,0.00,,---,0.00,VWS V14.01,2013-03-19 18:10:00,
2013-03-19 11:15:00,54.9,42.9,30.09,WNW,292,0.0,2.5,64,0.00,,---,0.00,VWS V14.01,2013-03-19 18:15:00,
2013-03-19 11:20:00,54.9,42.9,30.09,WNW,292,0.0,2.7,64,0.00,,---,0.00,VWS V14.01,2013-03-19 18:20:00,
2013-03-19 11:25:00,54.9,42.9,30.09,NW,315,2.2,2.9,64,0.00,,---,0.00,VWS V14.01,2013-03-19 18:25:00,
2013-03-19 11:30:00,54.9,42.9,30.09,NW,315,2.9,2.9,64,0.00,,---,0.00,VWS V14.01,2013-03-19 18:30:00,
2013-03-19 11:35:00,54.9,42.9,30.09,West,270,1.3,3.4,64,0.00,,---,0.00,VWS V14.01,2013-03-19 18:35:00,
2013-03-19 11:41:00,54.9,42.9,30.09,NNE,22,0.9,2.2,64,0.00,,---,0.00,VWS V14.01,2013-03-19 18:41:00,
2013-03-19 11:46:00,54.9,42.9,30.09,NNW,338,2.0,2.9,64,0.00,,---,0.00,VWS V14.01,2013-03-19 18:46:00,
2013-03-19 11:52:00,60.3,45.9,30.09,West,270,3.1,3.1,59,0.00,,---,0.00,VWS V14.01,2013-03-19 18:52:00,
2013-03-19 11:57:00,60.1,45.3,30.09,West,270,1.3,3.1,58,0.00,,---,0.00,VWS V14.01,2013-03-19 18:57:00,
2013-03-19 12:02:00,60.1,45.3,30.09,West,270,1.6,1.6,58,0.00,,---,0.00,VWS V14.01,2013-03-19 19:02:00,
2013-03-19 12:07:00,60.1,45.3,30.12,NNW,338,0.0,1.1,58,0.00,,---,0.00,VWS V14.01,2013-03-19 19:07:00,
2013-03-19 12:12:00,60.1,45.3,30.12,West,270,3.8,4.3,58,0.00,,---,0.00,VWS V14.01,2013-03-19 19:12:00,
2013-03-19 12:17:00,60.3,45.4,30.12,NW,315,3.8,3.8,58,0.00,,---,0.00,VWS V14.01,2013-03-19 19:17:00,
2013-03-19 12:22:00,60.3,45.4,30.09,NNW,338,1.3,1.3,58,0.00,,---,0.00,VWS V14.01,2013-03-19 19:22:00,
2013-03-19 12:27:00,60.3,45.4,30.09,WNW,292,3.4,3.8,58,0.00,,---,0.00,VWS V14.01,2013-03-19 19:27:00,
2013-03-19 12:33:00,61.0,45.2,30.09,WNW,292,3.6,3.6,56,0.00,,---,0.00,VWS V14.01,2013-03-19 19:33:00,
2013-03-19 12:38:00,60.8,45.0,30.12,West,270,2.5,2.5,56,0.00,,---,0.00,VWS V14.01,2013-03-19 19:38:00,
2013-03-19 12:43:00,60.8,45.0,30.12,WSW,248,3.6,3.6,56,0.00,,---,0.00,VWS V14.01,2013-03-19 19:43:00,
2013-03-19 12:48:00,60.6,45.3,30.12,West,270,1.6,2.7,57,0.00,,---,0.00,VWS V14.01,2013-03-19 19:48:00,
2013-03-19 12:53:00,60.6,45.3,30.12,NW,315,0.0,2.7,57,0.00,,---,0.00,VWS V14.01,2013-03-19 19:53:00,
2013-03-19 12:58:00,60.6,45.3,30.12,West,270,3.8,4.0,57,0.00,,---,0.00,VWS V14.01,2013-03-19 19:58:00,
2013-03-19 13:03:00,60.6,45.3,30.12,WNW,292,1.6,1.6,57,0.00,,---,0.00,VWS V14.01,2013-03-19 20:03:00,
2013-03-19 13:08:00,60.6,45.3,30.12,WNW,292,1.3,1.3,57,0.00,,---,0.00,VWS V14.01,2013-03-19 20:08:00,
2013-03-19 13:13:00,60.6,45.3,30.12,WNW,292,2.5,2.5,57,0.00,,---,0.00,VWS V14.01,2013-03-19 20:13:00,
2013-03-19 13:18:00,60.6,45.3,30.09,WNW,292,3.4,3.4,57,0.00,,---,0.00,VWS V14.01,2013-03-19 20:18:00,
2013-03-19 13:24:00,60.6,45.3,30.09,SSE,158,0.9,2.0,57,0.00,,---,0.00,VWS V14.01,2013-03-19 20:24:00,
2013-03-19 13:29:00,60.6,45.3,30.09,WNW,292,4.9,4.9,57,0.00,,---,0.00,VWS V14.01,2013-03-19 20:29:00,
2013-03-19 13:34:00,60.6,45.3,30.09,WSW,248,2.0,2.7,57,0.00,,---,0.00,VWS V14.01,2013-03-19 20:34:00,
2013-03-19 13:39:00,60.6,45.3,30.09,North,0,1.6,2.7,57,0.00,,---,0.00,VWS V14.01,2013-03-19 20:39:00,
2013-03-19 13:44:00,60.6,45.3,30.09,WNW,292,2.9,3.1,57,0.00,,---,0.00,VWS V14.01,2013-03-19 20:44:00,
2013-03-19 13:49:00,60.6,45.3,30.09,West,270,2.2,3.6,57,0.00,,---,0.00,VWS V14.01,2013-03-19 20:49:00,
2013-03-19 13:54:00,60.6,45.3,30.09,West,270,1.3,2.5,57,0.00,,---,0.00,VWS V14.01,2013-03-19 20:54:00,
2013-03-19 13:59:00,60.6,45.3,30.09,West,270,2.0,2.0,57,0.00,,---,0.00,VWS V14.01,2013-03-19 20:59:00,
2013-03-19 14:04:00,60.6,45.3,30.09,West,270,2.5,2.5,57,0.00,,---,0.00,VWS V14.01,2013-03-19 21:04:00,
2013-03-19 14:10:00,60.6,45.3,30.09,NW,315,1.1,3.1,57,0.00,,---,0.00,VWS V14.01,2013-03-19 21:10:00,
2013-03-19 14:15:00,60.6,45.3,30.09,NNW,338,2.0,2.9,57,0.00,,---,0.00,VWS V14.01,2013-03-19 21:15:00,
2013-03-19 14:20:00,60.6,45.3,30.09,NNW,338,1.1,1.6,57,0.00,,---,0.00,VWS V14.01,2013-03-19 21:20:00,
2013-03-19 14:25:00,60.6,45.3,30.09,NNW,338,2.0,2.5,57,0.00,,---,0.00,VWS V14.01,2013-03-19 21:25:00,
2013-03-19 14:30:00,60.6,45.3,30.09,NNE,22,1.6,3.1,57,0.00,,---,0.00,VWS V14.01,2013-03-19 21:30:00,
2013-03-19 14:35:00,60.6,45.3,30.09,NNW,338,2.9,3.6,57,0.00,,---,0.00,VWS V14.01,2013-03-19 21:35:00,
2013-03-19 14:40:00,60.6,45.3,30.09,NW,315,1.3,2.5,57,0.00,,---,0.00,VWS V14.01,2013-03-19 21:40:00,
2013-03-19 14:45:00,60.6,45.3,30.09,West,270,0.0,2.5,57,0.00,,---,0.00,VWS V14.01,2013-03-19 21:45:00,
2013-03-19 14:50:00,60.6,45.3,30.09,WSW,248,2.9,3.6,57,0.00,,---,0.00,VWS V14.01,2013-03-19 21:50:00,
2013-03-19 14:56:00,60.6,45.3,30.09,West,270,2.9,3.8,57,0.00,,---,0.00,VWS V14.01,2013-03-19 21:56:00,
2013-03-19 15:02:00,60.6,45.3,30.09,WNW,292,3.4,3.4,57,0.00,,---,0.00,VWS V14.01,2013-03-19 22:02:00,
2013-03-19 15:07:00,60.6,45.3,30.09,North,0,1.1,3.4,57,0.00,,---,0.00,VWS V14.01,2013-03-19 22:07:00,
2013-03-19 15:12:00,60.6,45.3,30.09,West,270,2.2,3.4,57,0.00,,---,0.00,VWS V14.01,2013-03-19 22:12:00,
2013-03-19 15:17:00,60.6,45.3,30.09,NE,45,0.0,0.0,57,0.00,,---,0.00,VWS V14.01,2013-03-19 22:17:00,
2013-03-19 15:22:00,60.6,45.3,30.06,NW,315,1.3,1.3,57,0.00,,---,0.00,VWS V14.01,2013-03-19 22:22:00,
2013-03-19 15:27:00,60.6,45.3,30.06,NW,315,0.0,1.3,57,0.00,,---,0.00,VWS V14.01,2013-03-19 22:27:00,
2013-03-19 15:33:00,60.6,45.3,30.06,NNW,338,1.3,1.3,57,0.00,,---,0.00,VWS V14.01,2013-03-19 22:33:00,
2013-03-19 15:38:00,60.6,45.3,30.06,SE,135,0.0,0.0,57,0.00,,---,0.00,VWS V14.01,2013-03-19 22:38:00,
2013-03-19 15:43:00,60.6,45.3,30.06,NW,315,0.9,0.9,57,0.00,,---,0.00,VWS V14.01,2013-03-19 22:43:00,
2013-03-19 15:48:00,60.6,45.3,30.06,SSW,202,0.0,0.9,57,0.00,,---,0.00,VWS V14.01,2013-03-19 22:48:00,
2013-03-19 15:53:00,60.6,45.3,30.06,ENE,68,0.0,1.3,57,0.00,,---,0.00,VWS V14.01,2013-03-19 22:53:00,
2013-03-19 15:58:00,60.6,45.3,30.06,East,90,1.1,1.1,57,0.00,,---,0.00,VWS V14.01,2013-03-19 22:58:00,
2013-03-19 16:03:00,60.6,45.3,30.06,NE,45,0.9,3.1,57,0.00,,---,0.00,VWS V14.01,2013-03-19 23:03:00,
2013-03-19 16:08:00,60.6,45.3,30.06,South,180,0.0,1.1,57,0.00,,---,0.00,VWS V14.01,2013-03-19 23:08:00,
2013-03-19 16:13:00,60.6,45.3,30.06,West,270,1.6,1.6,57,0.00,,---,0.00,VWS V14.01,2013-03-19 23:13:00,
2013-03-19 16:18:00,60.6,45.3,30.06,SW,225,0.0,0.0,57,0.00,,---,0.00,VWS V14.01,2013-03-19 23:18:00,
2013-03-19 16:23:00,60.6,45.3,30.06,SW,225,0.0,2.2,57,0.00,,---,0.00,VWS V14.01,2013-03-19 23:23:00,
2013-03-19 16:29:00,60.6,45.3,30.06,West,270,2.0,2.0,57,0.00,,---,0.00,VWS V14.01,2013-03-19 23:29:00,
2013-03-19 16:34:00,60.6,45.3,30.06,South,180,0.9,1.3,57,0.00,,---,0.00,VWS V14.01,2013-03-19 23:34:00,
2013-03-19 16:39:00,60.6,45.3,30.06,West,270,3.4,3.4,57,0.00,,---,0.00,VWS V14.01,2013-03-19 23:39:00,
2013-03-19 16:44:00,60.6,45.3,30.06,SW,225,0.0,0.9,57,0.00,,---,0.00,VWS V14.01,2013-03-19 23:44:00,
2013-03-19 16:49:00,60.6,45.3,30.06,South,180,1.3,1.3,57,0.00,,---,0.00,VWS V14.01,2013-03-19 23:49:00,
2013-03-19 16:54:00,60.6,45.3,30.06,SSE,158,1.3,2.5,57,0.00,,---,0.00,VWS V14.01,2013-03-19 23:54:00,
2013-03-19 17:00:00,60.6,45.3,30.06,South,180,1.3,1.6,57,0.00,,---,0.00,VWS V14.01,2013-03-20 00:00:00,
2013-03-19 17:05:00,60.6,45.3,30.09,SSE,158,2.7,5.8,57,0.00,,---,0.00,VWS V14.01,2013-03-20 00:05:00,
2013-03-19 17:10:00,60.6,45.3,30.09,NW,315,2.5,4.7,57,0.00,,---,0.00,VWS V14.01,2013-03-20 00:10:00,
2013-03-19 17:15:00,60.6,45.3,30.09,SW,225,1.3,2.9,57,0.00,,---,0.00,VWS V14.01,2013-03-20 00:15:00,
2013-03-19 17:20:00,60.6,45.3,30.09,SSE,158,2.5,2.7,57,0.00,,---,0.00,VWS V14.01,2013-03-20 00:20:00,
2013-03-19 17:25:00,60.6,45.3,30.09,West,270,0.0,2.7,57,0.00,,---,0.00,VWS V14.01,2013-03-20 00:25:00,
2013-03-19 17:30:00,60.6,45.3,30.09,NW,315,0.0,2.5,57,0.00,,---,0.00,VWS V14.01,2013-03-20 00:30:00,
2013-03-19 17:35:00,60.6,45.3,30.09,South,180,2.5,3.6,57,0.00,,---,0.00,VWS V14.01,2013-03-20 00:35:00,
2013-03-19 17:40:00,60.6,45.3,30.09,SW,225,0.0,2.9,57,0.00,,---,0.00,VWS V14.01,2013-03-20 00:40:00,
2013-03-19 17:45:00,60.6,45.3,30.09,SW,225,1.1,2.5,57,0.00,,---,0.00,VWS V14.01,2013-03-20 00:45:00,
2013-03-19 17:50:00,60.6,45.3,30.09,South,180,0.9,2.5,57,0.00,,---,0.00,VWS V14.01,2013-03-20 00:50:00,
2013-03-19 17:55:00,60.6,45.3,30.09,West,270,1.1,2.5,57,0.00,,---,0.00,VWS V14.01,2013-03-20 00:55:00,
2013-03-19 18:00:00,60.6,45.3,30.09,WNW,292,2.7,5.8,57,0.00,,---,0.00,VWS V14.01,2013-03-20 01:00:00,
2013-03-19 18:06:00,60.6,45.3,30.09,SW,225,2.0,7.2,57,0.00,,---,0.00,VWS V14.01,2013-03-20 01:06:00,
2013-03-19 18:11:00,60.6,45.3,30.09,South,180,2.7,3.8,57,0.00,,---,0.00,VWS V14.01,2013-03-20 01:11:00,
2013-03-19 18:17:00,60.6,45.3,30.09,West,270,2.5,5.8,57,0.00,,---,0.00,VWS V14.01,2013-03-20 01:17:00,
2013-03-19 18:22:00,60.6,45.3,30.09,South,180,4.3,4.3,57,0.00,,---,0.00,VWS V14.01,2013-03-20 01:22:00,
2013-03-19 18:27:00,60.6,45.3,30.09,SSE,158,4.3,5.6,57,0.00,,---,0.00,VWS V14.01,2013-03-20 01:27:00,
2013-03-19 18:32:00,60.6,45.3,30.09,South,180,4.3,4.3,57,0.00,,---,0.00,VWS V14.01,2013-03-20 01:32:00,
2013-03-19 18:37:00,60.6,45.3,30.12,SW,225,1.3,1.3,57,0.00,,---,0.00,VWS V14.01,2013-03-20 01:37:00,
2013-03-19 18:42:00,60.6,45.3,30.12,West,270,2.2,2.2,57,0.00,,---,0.00,VWS V14.01,2013-03-20 01:42:00,
2013-03-19 18:47:00,60.6,45.3,30.12,WNW,292,1.6,2.0,57,0.00,,---,0.00,VWS V14.01,2013-03-20 01:47:00,
2013-03-19 18:52:00,60.6,45.3,30.12,SSE,158,2.2,2.2,57,0.00,,---,0.00,VWS V14.01,2013-03-20 01:52:00,
2013-03-19 18:58:00,60.6,45.3,30.12,ESE,112,0.9,0.9,57,0.00,,---,0.00,VWS V14.01,2013-03-20 01:58:00,
2013-03-19 19:03:00,60.6,45.3,30.12,South,180,0.0,0.0,57,0.00,,---,0.00,VWS V14.01,2013-03-20 02:03:00,
2013-03-19 19:08:00,60.6,45.3,30.12,SE,135,0.0,0.0,57,0.00,,---,0.00,VWS V14.01,2013-03-20 02:08:00,
2013-03-19 19:13:00,60.6,45.3,30.12,SE,135,2.5,2.5,57,0.00,,---,0.00,VWS V14.01,2013-03-20 02:13:00,
2013-03-19 19:18:00,51.8,47.8,30.12,South,180,0.0,0.0,86,0.00,,---,0.00,VWS V14.01,2013-03-20 02:18:00,
2013-03-19 19:23:00,51.8,48.1,30.12,SW,225,2.0,2.0,87,0.00,,---,0.00,VWS V14.01,2013-03-20 02:23:00,
2013-03-19 19:28:00,51.6,48.5,30.12,ESE,112,0.0,0.0,89,0.00,,---,0.00,VWS V14.01,2013-03-20 02:28:00,
2013-03-19 19:33:00,51.6,48.5,30.12,ESE,112,2.5,2.5,89,0.00,,---,0.00,VWS V14.01,2013-03-20 02:33:00,
2013-03-19 19:38:00,51.3,48.7,30.12,NE,45,1.1,2.5,91,0.00,,---,0.00,VWS V14.01,2013-03-20 02:38:00,
2013-03-19 19:43:00,51.1,48.5,30.12,East,90,2.7,2.9,91,0.00,,---,0.00,VWS V14.01,2013-03-20 02:43:00,
2013-03-19 19:48:00,51.1,48.8,30.09,East,90,1.1,1.6,92,0.00,,---,0.00,VWS V14.01,2013-03-20 02:48:00,
2013-03-19 19:53:00,50.9,48.7,30.09,ENE,68,0.9,2.2,92,0.00,,---,0.00,VWS V14.01,2013-03-20 02:53:00,
2013-03-19 19:58:00,50.9,48.7,30.09,ENE,68,2.7,2.7,92,0.00,,---,0.00,VWS V14.01,2013-03-20 02:58:00,
2013-03-19 20:03:00,50.5,48.6,30.09,NE,45,2.9,3.8,93,0.00,,---,0.00,VWS V14.01,2013-03-20 03:03:00,
2013-03-19 20:09:00,50.5,48.6,30.09,ESE,112,3.4,3.4,93,0.00,,---,0.00,VWS V14.01,2013-03-20 03:09:00,
2013-03-19 20:14:00,50.5,48.6,30.09,SE,135,2.0,4.7,93,0.00,,---,0.00,VWS V14.01,2013-03-20 03:14:00,
2013-03-19 20:19:00,50.5,48.6,30.09,ESE,112,2.5,3.6,93,0.00,,---,0.00,VWS V14.01,2013-03-20 03:19:00,
2013-03-19 20:24:00,50.5,48.6,30.09,ENE,68,2.0,2.0,93,0.00,,---,0.00,VWS V14.01,2013-03-20 03:24:00,
2013-03-19 20:29:00,50.5,48.6,30.09,SSE,158,2.7,3.4,93,0.00,,---,0.00,VWS V14.01,2013-03-20 03:29:00,
2013-03-19 20:34:00,50.5,48.6,30.09,ESE,112,2.5,2.5,93,0.00,,---,0.00,VWS V14.01,2013-03-20 03:34:00,
2013-03-19 20:40:00,49.6,48.3,30.09,NNE,22,1.3,1.3,95,0.00,,---,0.00,VWS V14.01,2013-03-20 03:40:00,
2013-03-19 20:45:00,49.6,48.3,30.09,ENE,68,4.3,4.3,95,0.00,,---,0.00,VWS V14.01,2013-03-20 03:45:00,
2013-03-19 20:50:00,49.6,48.3,30.09,South,180,1.3,3.4,95,0.00,,---,0.00,VWS V14.01,2013-03-20 03:50:00,
2013-03-19 20:55:00,49.6,48.3,30.09,SSE,158,1.3,1.3,95,0.00,,---,0.00,VWS V14.01,2013-03-20 03:55:00,
2013-03-19 21:00:00,49.6,48.3,30.09,ESE,112,0.0,1.3,95,0.00,,---,0.00,VWS V14.01,2013-03-20 04:00:00,
2013-03-19 21:02:00,49.6,48.3,30.09,SE,135,1.6,1.6,95,0.00,,---,0.00,VWS V14.01,2013-03-20 04:02:00,
2013-03-19 21:04:00,49.6,48.3,30.09,ENE,68,0.0,2.0,95,0.00,,---,0.00,VWS V14.01,2013-03-20 04:04:00,
2013-03-19 21:05:00,49.6,48.3,30.09,NE,45,0.9,2.0,95,0.00,,---,0.00,VWS V14.01,2013-03-20 04:05:00,
2013-03-19 21:11:00,49.6,48.3,30.09,SSE,158,3.6,3.6,95,0.00,,---,0.00,VWS V14.01,2013-03-20 04:11:00,
2013-03-19 21:16:00,49.6,48.3,30.09,SSE,158,0.0,3.1,95,0.00,,---,0.00,VWS V14.01,2013-03-20 04:16:00,
2013-03-19 21:21:00,49.6,48.3,30.09,South,180,2.5,3.6,95,0.00,,---,0.00,VWS V14.01,2013-03-20 04:21:00,
2013-03-19 21:26:00,49.6,48.3,30.09,SSW,202,2.2,3.8,95,0.00,,---,0.00,VWS V14.01,2013-03-20 04:26:00,
2013-03-19 21:31:00,49.6,48.3,30.09,ESE,112,1.6,2.2,95,0.00,,---,0.00,VWS V14.01,2013-03-20 04:31:00,
2013-03-19 21:36:00,49.6,48.3,30.06,NNW,338,1.1,2.2,95,0.00,,---,0.00,VWS V14.01,2013-03-20 04:36:00,
2013-03-19 21:41:00,49.6,48.3,30.06,NNW,338,3.6,3.6,95,0.00,,---,0.00,VWS V14.01,2013-03-20 04:41:00,
2013-03-19 21:47:00,49.6,48.3,30.06,NNE,22,3.1,3.6,95,0.00,,---,0.00,VWS V14.01,2013-03-20 04:47:00,
2013-03-19 21:52:00,49.6,48.3,30.06,North,0,2.7,3.1,95,0.00,,---,0.00,VWS V14.01,2013-03-20 04:52:00,
2013-03-19 21:57:00,49.6,48.3,30.06,NNE,22,0.0,0.0,95,0.00,,---,0.00,VWS V14.01,2013-03-20 04:57:00,
2013-03-19 22:02:00,48.7,47.4,30.06,South,180,0.0,0.0,95,0.13,,---,0.13,VWS V14.01,2013-03-20 05:02:00,
2013-03-19 22:07:00,48.7,47.4,30.06,South,180,0.0,0.0,95,0.13,,---,0.13,VWS V14.01,2013-03-20 05:07:00,
2013-03-19 22:12:00,48.7,47.4,30.06,SSE,158,0.0,0.0,95,0.13,,---,0.13,VWS V14.01,2013-03-20 05:12:00,
2013-03-19 22:17:00,48.7,47.4,30.06,South,180,0.0,0.0,95,0.13,,---,0.13,VWS V14.01,2013-03-20 05:17:00,
2013-03-19 22:22:00,48.7,47.4,30.09,ESE,112,1.3,1.3,95,0.13,,---,0.13,VWS V14.01,2013-03-20 05:22:00,
2013-03-19 22:27:00,48.7,47.4,30.09,East,90,0.0,0.0,95,0.13,,---,0.13,VWS V14.01,2013-03-20 05:27:00,
2013-03-19 22:32:00,48.7,47.4,30.09,North,0,0.0,0.0,95,0.13,,---,0.13,VWS V14.01,2013-03-20 05:32:00,
2013-03-19 22:38:00,48.7,47.7,30.06,North,0,0.0,0.0,96,0.13,,---,0.13,VWS V14.01,2013-03-20 05:38:00,
2013-03-19 22:43:00,48.7,47.7,30.06,West,270,0.0,0.0,96,0.13,,---,0.13,VWS V14.01,2013-03-20 05:43:00,
2013-03-19 22:48:00,48.7,47.7,30.06,SW,225,0.0,0.0,96,0.13,,---,0.13,VWS V14.01,2013-03-20 05:48:00,
2013-03-19 22:53:00,48.4,47.3,30.09,SW,225,0.0,0.0,96,0.13,,---,0.13,VWS V14.01,2013-03-20 05:53:00,
2013-03-19 22:58:00,48.4,47.3,30.09,ENE,68,0.0,0.0,96,0.13,,---,0.13,VWS V14.01,2013-03-20 05:58:00,
2013-03-19 23:03:00,48.4,47.3,30.09,East,90,0.0,0.0,96,0.13,,---,0.13,VWS V14.01,2013-03-20 06:03:00,
2013-03-19 23:08:00,48.4,47.3,30.09,NNE,22,0.0,0.0,96,0.00,,---,0.13,VWS V14.01,2013-03-20 06:08:00,
2013-03-19 23:13:00,48.4,47.3,30.09,NE,45,0.0,2.2,96,0.00,,---,0.13,VWS V14.01,2013-03-20 06:13:00,
2013-03-19 23:18:00,48.4,47.3,30.06,NNE,22,0.0,0.0,96,0.00,,---,0.13,VWS V14.01,2013-03-20 06:18:00,
2013-03-19 23:23:00,48.4,47.3,30.06,NNE,22,0.0,2.2,96,0.00,,---,0.13,VWS V14.01,2013-03-20 06:23:00,
2013-03-19 23:28:00,48.4,47.3,30.06,West,270,0.0,0.0,96,0.00,,---,0.13,VWS V14.01,2013-03-20 06:28:00,
2013-03-19 23:33:00,48.4,47.3,30.06,SW,225,0.0,0.0,96,0.00,,---,0.13,VWS V14.01,2013-03-20 06:33:00,
2013-03-19 23:38:00,48.4,47.3,30.06,West,270,0.0,0.0,96,0.00,,---,0.13,VWS V14.01,2013-03-20 06:38:00,
2013-03-19 23:43:00,48.4,47.3,30.06,SSE,158,0.0,0.0,96,0.00,,---,0.13,VWS V14.01,2013-03-20 06:43:00,
2013-03-19 23:48:00,48.4,47.3,30.06,SE,135,0.0,0.0,96,0.00,,---,0.13,VWS V14.01,2013-03-20 06:48:00,
2013-03-19 23:53:00,48.6,47.5,30.06,South,180,0.0,0.0,96,0.00,,---,0.13,VWS V14.01,2013-03-20 06:53:00,
2013-03-19 23:58:00,48.4,47.3,30.06,SSE,158,0.0,0.0,96,0.00,,---,0.13,VWS V14.01,2013-03-20 06:58:00,